createdAt,value
2024-04-04T00:02:21.896Z,81.25
2024-04-04T00:05:07.584Z,81.38
2024-04-04T00:07:34.214Z,81.48
2024-04-04T00:10:01.648Z,81.77
2024-04-04T00:12:28.537Z,81.93
2024-04-04T00:14:55.227Z,82.01
2024-04-04T00:17:21.989Z,82.02
2024-04-04T00:19:48.806Z,82.30
2024-04-04T00:22:15.478Z,82.21
2024-04-04T00:24:42.703Z,82.38
2024-04-04T00:27:16.777Z,82.39
2024-04-04T00:29:44.349Z,82.63
2024-04-04T00:32:11.002Z,82.60
2024-04-04T00:34:37.717Z,82.51
2024-04-04T00:37:07.236Z,82.41
2024-04-04T00:39:33.880Z,82.37
2024-04-04T00:42:00.593Z,82.36
2024-04-04T00:44:27.512Z,82.22
2024-04-04T00:46:54.114Z,82.13
2024-04-04T00:49:21.741Z,82.02
2024-04-04T00:51:49.083Z,81.95
2024-04-04T00:54:15.965Z,81.76
2024-04-04T00:56:42.537Z,81.81
2024-04-04T00:59:13.541Z,81.81
2024-04-04T01:01:43.075Z,81.60
2024-04-04T01:04:11.630Z,81.58
2024-04-04T01:06:40.115Z,81.63
2024-04-04T01:09:06.860Z,81.58
2024-04-04T01:11:33.520Z,81.64
2024-04-04T01:14:00.552Z,81.66
2024-04-04T01:16:27.187Z,81.48
2024-04-04T01:18:53.902Z,81.65
2024-04-04T01:21:20.717Z,81.72
2024-04-04T01:23:47.332Z,81.56
2024-04-04T01:26:15.002Z,81.55
2024-04-04T01:28:41.613Z,81.74
2024-04-04T01:31:08.445Z,81.55
2024-04-04T01:33:35.092Z,81.54
2024-04-04T01:36:01.787Z,81.76
2024-04-04T01:38:28.550Z,81.82
2024-04-04T01:40:55.346Z,81.83
2024-04-04T01:43:22.347Z,81.98
2024-04-04T01:45:49.102Z,82.07
2024-04-04T01:48:15.797Z,82.23
2024-04-04T01:50:42.605Z,82.23
2024-04-04T01:53:09.409Z,82.39
2024-04-04T01:55:35.942Z,82.33
2024-04-04T01:58:02.767Z,82.39
2024-04-04T02:00:29.359Z,82.54
2024-04-04T02:02:56.439Z,82.63
2024-04-04T02:05:23.290Z,82.35
2024-04-04T02:07:49.899Z,82.58
2024-04-04T02:10:16.843Z,82.78
2024-04-04T02:12:43.477Z,82.78
2024-04-04T02:15:11.233Z,82.97
2024-04-04T02:17:37.952Z,82.89
2024-04-04T02:20:11.021Z,83.03
2024-04-04T02:22:38.461Z,83.16
2024-04-04T02:25:09.982Z,83.11
2024-04-04T02:27:37.360Z,83.20
2024-04-04T02:30:04.631Z,83.22
2024-04-04T02:32:31.400Z,83.39
2024-04-04T02:34:58.340Z,83.42
2024-04-04T02:37:25.130Z,83.41
2024-04-04T02:39:51.830Z,83.39
2024-04-04T02:42:19.408Z,83.48
2024-04-04T02:44:46.223Z,83.55
2024-04-04T02:47:12.810Z,83.50
2024-04-04T02:49:39.417Z,83.68
2024-04-04T02:52:06.332Z,83.71
2024-04-04T02:54:32.975Z,83.59
2024-04-04T02:56:59.656Z,83.64
2024-04-04T02:59:26.676Z,83.74
2024-04-04T03:01:53.274Z,83.72
2024-04-04T03:04:19.877Z,83.77
2024-04-04T03:06:46.493Z,83.71
2024-04-04T03:09:13.661Z,83.82
2024-04-04T03:11:40.249Z,83.71
2024-04-04T03:14:06.800Z,83.60
2024-04-04T03:16:36.281Z,83.64
2024-04-04T03:19:02.998Z,83.69
2024-04-04T03:21:29.622Z,83.71
2024-04-04T03:23:56.906Z,83.72
2024-04-04T03:26:24.090Z,83.76
2024-04-04T03:28:50.685Z,83.75
2024-04-04T03:31:17.460Z,83.71
2024-04-04T03:33:44.096Z,83.84
2024-04-04T03:36:10.739Z,83.66
2024-04-04T03:38:37.427Z,83.61
2024-04-04T03:41:04.287Z,83.63
2024-04-04T03:43:30.888Z,83.65
2024-04-04T03:46:05.228Z,83.50
2024-04-04T03:48:34.231Z,83.50
2024-04-04T03:51:01.566Z,83.44
2024-04-04T03:53:29.039Z,83.54
2024-04-04T03:55:55.721Z,83.37
2024-04-04T03:58:27.955Z,83.64
2024-04-04T04:00:54.979Z,83.63
2024-04-04T04:03:21.663Z,83.70
2024-04-04T04:05:48.615Z,83.74
2024-04-04T04:08:16.676Z,83.80
2024-04-04T04:10:43.351Z,83.88
2024-04-04T04:13:09.998Z,83.86
2024-04-04T04:15:36.601Z,84.08
2024-04-04T04:18:03.371Z,84.16
2024-04-04T04:20:48.807Z,84.23
2024-04-04T04:23:15.633Z,84.34
2024-04-04T04:25:42.475Z,84.47
2024-04-04T04:28:09.090Z,84.45
2024-04-04T04:30:36.044Z,84.62
2024-04-04T04:33:02.997Z,84.73
2024-04-04T04:35:29.664Z,84.74
2024-04-04T04:37:56.317Z,84.70
2024-04-04T04:40:22.972Z,84.76
2024-04-04T04:42:49.637Z,84.70
2024-04-04T04:45:17.048Z,84.74
2024-04-04T04:47:44.398Z,84.63
2024-04-04T04:50:10.988Z,84.63
2024-04-04T04:52:37.646Z,84.77
2024-04-04T04:55:06.276Z,84.67
2024-04-04T04:57:33.010Z,84.70
2024-04-04T04:59:59.845Z,84.45
2024-04-04T05:02:26.539Z,84.57
2024-04-04T05:04:53.213Z,84.72
2024-04-04T05:07:19.868Z,84.36
2024-04-04T05:09:46.568Z,84.45
2024-04-04T05:12:13.451Z,84.16
2024-04-04T05:14:40.064Z,83.90
2024-04-04T05:17:06.727Z,83.72
2024-04-04T05:19:34.895Z,83.43
2024-04-04T05:22:01.514Z,83.42
2024-04-04T05:24:28.251Z,83.57
2024-04-04T05:26:55.053Z,83.63
2024-04-04T05:29:21.762Z,83.38
2024-04-04T05:31:48.487Z,83.04
2024-04-04T05:34:16.731Z,82.49
2024-04-04T05:36:43.937Z,82.59
2024-04-04T05:39:10.724Z,82.18
2024-04-04T05:41:37.374Z,82.25
2024-04-04T05:44:04.694Z,82.35
2024-04-04T05:46:31.302Z,82.66
2024-04-04T05:48:58.057Z,82.44
2024-04-04T05:51:26.473Z,82.05
2024-04-04T05:53:53.211Z,81.79
2024-04-04T05:56:22.738Z,81.81
2024-04-04T05:59:08.304Z,81.58
2024-04-04T06:01:35.179Z,81.19
2024-04-04T06:04:01.942Z,81.43
2024-04-04T06:06:28.713Z,81.42
2024-04-04T06:08:56.785Z,81.04
2024-04-04T06:11:27.934Z,81.09
2024-04-04T06:13:54.640Z,80.86
2024-04-04T06:16:21.428Z,80.83
2024-04-04T06:18:48.582Z,80.93
2024-04-04T06:21:15.826Z,80.93
2024-04-04T06:23:50.078Z,80.87
2024-04-04T06:26:18.644Z,80.73
2024-04-04T06:28:47.894Z,80.66
2024-04-04T06:31:16.600Z,80.62
2024-04-04T06:33:45.779Z,80.41
2024-04-04T06:36:12.896Z,80.44
2024-04-04T06:38:40.689Z,80.46
2024-04-04T06:41:07.474Z,80.71
2024-04-04T06:43:35.759Z,80.61
2024-04-04T06:46:02.999Z,80.57
2024-04-04T06:48:29.749Z,80.40
2024-04-04T06:50:56.714Z,80.45
2024-04-04T06:53:27.178Z,80.34
2024-04-04T06:55:55.136Z,80.31
2024-04-04T06:58:23.421Z,80.35
2024-04-04T07:01:00.194Z,80.39
2024-04-04T07:03:27.391Z,80.42
2024-04-04T07:05:54.309Z,80.45
2024-04-04T07:08:21.213Z,80.47
2024-04-04T07:10:48.209Z,80.60
2024-04-04T07:13:16.883Z,80.38
2024-04-04T07:15:43.757Z,80.42
2024-04-04T07:18:12.808Z,80.40
2024-04-04T07:20:40.170Z,80.29
2024-04-04T07:23:06.947Z,80.65
2024-04-04T07:25:33.813Z,80.69
2024-04-04T07:28:01.807Z,80.72
2024-04-04T07:30:30.175Z,80.76
2024-04-04T07:32:56.993Z,80.85
2024-04-04T07:35:24.406Z,80.97
2024-04-04T07:37:54.169Z,80.79
2024-04-04T07:40:21.048Z,80.67
2024-04-04T07:42:47.734Z,80.64
2024-04-04T07:45:14.495Z,80.64
2024-04-04T07:47:41.385Z,80.73
2024-04-04T07:50:08.769Z,80.53
2024-04-04T07:52:36.275Z,80.43
2024-04-04T07:55:04.192Z,80.46
2024-04-04T07:57:31.015Z,80.67
2024-04-04T07:59:57.774Z,80.69
2024-04-04T08:02:27.099Z,80.64
2024-04-04T08:04:53.796Z,80.85
2024-04-04T08:07:21.802Z,80.81
2024-04-04T08:09:48.994Z,80.94
2024-04-04T08:12:15.829Z,80.89
2024-04-04T08:14:45.271Z,80.86
2024-04-04T08:17:12.126Z,80.79
2024-04-04T08:19:38.759Z,80.66
2024-04-04T08:22:08.643Z,80.79
2024-04-04T08:24:35.583Z,80.63
2024-04-04T08:27:02.296Z,80.48
2024-04-04T08:29:28.937Z,80.60
2024-04-04T08:31:55.698Z,80.66
2024-04-04T08:34:22.574Z,80.62
2024-04-04T08:36:49.466Z,80.60
2024-04-04T08:39:17.010Z,80.66
2024-04-04T08:41:43.740Z,80.46
2024-04-04T08:44:12.733Z,80.29
2024-04-04T08:46:40.856Z,80.46
2024-04-04T08:49:14.687Z,80.22
2024-04-04T08:51:42.655Z,80.45
2024-04-04T08:54:09.404Z,80.42
2024-04-04T08:56:36.770Z,80.73
2024-04-04T08:59:03.477Z,80.85
2024-04-04T09:01:34.020Z,80.56
2024-04-04T09:04:08.529Z,80.55
2024-04-04T09:06:36.052Z,80.66
2024-04-04T09:09:02.846Z,80.69
2024-04-04T09:11:30.935Z,80.62
2024-04-04T09:14:10.440Z,80.67
2024-04-04T09:16:37.977Z,80.69
2024-04-04T09:19:15.564Z,80.52
2024-04-04T09:21:45.099Z,80.40
2024-04-04T09:24:16.599Z,80.26
2024-04-04T09:26:44.410Z,80.23
2024-04-04T09:29:12.058Z,80.56
2024-04-04T09:31:41.981Z,80.27
2024-04-04T09:34:11.118Z,80.39
2024-04-04T09:36:41.028Z,80.16
2024-04-04T09:39:10.070Z,80.04
2024-04-04T09:41:38.527Z,79.94
2024-04-04T09:44:06.332Z,79.96
2024-04-04T09:46:38.706Z,79.89
2024-04-04T09:49:09.831Z,79.78
2024-04-04T09:51:39.093Z,79.74
2024-04-04T09:54:07.092Z,79.83
2024-04-04T09:56:34.688Z,79.26
2024-04-04T09:59:01.524Z,79.09
2024-04-04T10:01:28.475Z,79.10
2024-04-04T10:03:59.466Z,79.61
2024-04-04T10:06:37.366Z,79.25
2024-04-04T10:09:25.057Z,79.46
2024-04-04T10:11:52.430Z,79.51
2024-04-04T10:14:22.900Z,78.84
2024-04-04T10:16:53.385Z,78.92
2024-04-04T10:19:24.752Z,78.79
2024-04-04T10:21:52.243Z,78.73
2024-04-04T10:24:23.819Z,78.69
2024-04-04T10:27:03.021Z,78.08
2024-04-04T10:29:40.445Z,78.38
2024-04-04T10:32:08.785Z,78.46
2024-04-04T10:34:36.035Z,77.94
2024-04-04T10:37:03.809Z,77.76
2024-04-04T10:39:30.513Z,77.59
2024-04-04T10:42:01.388Z,77.53
2024-04-04T10:44:30.753Z,76.80
2024-04-04T10:47:00.341Z,76.93
2024-04-04T10:49:29.551Z,76.59
2024-04-04T10:51:59.540Z,76.76
2024-04-04T10:54:31.068Z,76.96
2024-04-04T10:56:58.593Z,76.72
2024-04-04T10:59:25.692Z,76.21
2024-04-04T11:01:53.573Z,76.01
2024-04-04T11:04:20.277Z,75.25
2024-04-04T11:06:48.776Z,75.45
2024-04-04T11:09:21.116Z,75.07
2024-04-04T11:11:50.420Z,75.45
2024-04-04T11:14:25.399Z,75.26
2024-04-04T11:16:54.874Z,74.76
2024-04-04T11:19:23.630Z,74.58
2024-04-04T11:21:51.440Z,74.14
2024-04-04T11:24:19.068Z,73.05
2024-04-04T11:26:46.827Z,72.74
2024-04-04T11:29:13.617Z,73.10
2024-04-04T11:31:40.606Z,72.79
2024-04-04T11:34:07.967Z,72.63
2024-04-04T11:36:34.825Z,73.46
2024-04-04T11:39:01.651Z,73.07
2024-04-04T11:41:28.402Z,72.19
2024-04-04T11:43:55.027Z,72.01
2024-04-04T11:46:21.909Z,71.15
2024-04-04T11:48:48.665Z,71.17
2024-04-04T11:51:15.443Z,70.89
2024-04-04T11:53:42.166Z,69.60
2024-04-04T11:56:08.911Z,69.37
2024-04-04T11:58:37.516Z,69.39
2024-04-04T12:01:04.236Z,69.06
2024-04-04T12:03:30.979Z,68.38
2024-04-04T12:05:57.908Z,68.74
2024-04-04T12:08:29.700Z,68.29
2024-04-04T12:11:03.567Z,68.38
2024-04-04T12:13:30.475Z,68.54
2024-04-04T12:15:58.601Z,68.50
2024-04-04T12:18:44.332Z,68.45
2024-04-04T12:21:16.929Z,68.78
2024-04-04T12:23:53.182Z,68.71
2024-04-04T12:26:24.294Z,68.81
2024-04-04T12:28:53.849Z,69.13
2024-04-04T12:31:20.974Z,69.35
2024-04-04T12:33:47.709Z,69.57
2024-04-04T12:36:14.729Z,69.21
2024-04-04T12:38:41.401Z,69.11
2024-04-04T12:41:08.232Z,69.72
2024-04-04T12:43:34.936Z,70.03
2024-04-04T12:46:04.470Z,69.74
2024-04-04T12:48:32.190Z,69.73
2024-04-04T12:50:59.896Z,69.58
2024-04-04T12:53:27.441Z,69.65
2024-04-04T12:55:54.411Z,69.43
2024-04-04T12:58:21.624Z,69.87
2024-04-04T13:00:48.840Z,69.97
2024-04-04T13:03:16.345Z,69.82
2024-04-04T13:05:43.156Z,69.49
2024-04-04T13:08:09.768Z,69.47
2024-04-04T13:10:36.746Z,69.31
2024-04-04T13:13:03.538Z,69.04
2024-04-04T13:15:30.199Z,69.44
2024-04-04T13:17:57.053Z,69.34
2024-04-04T13:20:23.726Z,68.83
2024-04-04T13:22:50.592Z,69.02
2024-04-04T13:25:17.412Z,68.88
2024-04-04T13:27:44.092Z,68.46
2024-04-04T13:30:11.839Z,68.67
2024-04-04T13:32:38.556Z,68.45
2024-04-04T13:35:05.924Z,68.94
2024-04-04T13:37:32.722Z,68.72
2024-04-04T13:40:03.497Z,68.93
2024-04-04T13:42:30.950Z,68.35
2024-04-04T13:44:57.715Z,68.76
2024-04-04T13:47:24.353Z,67.87
2024-04-04T13:49:51.131Z,67.62
2024-04-04T13:52:19.025Z,67.74
2024-04-04T13:54:47.469Z,66.75
2024-04-04T13:57:14.416Z,67.10
2024-04-04T13:59:41.082Z,66.92
2024-04-04T14:02:13.694Z,66.88
2024-04-04T14:04:40.517Z,66.89
2024-04-04T14:07:09.863Z,67.14
2024-04-04T14:09:36.742Z,66.93
2024-04-04T14:12:03.795Z,66.70
2024-04-04T14:14:30.456Z,66.78
2024-04-04T14:16:58.607Z,66.76
2024-04-04T14:19:26.598Z,66.33
2024-04-04T14:21:53.294Z,65.89
2024-04-04T14:24:20.121Z,66.03
2024-04-04T14:26:47.475Z,65.98
2024-04-04T14:29:14.255Z,66.37
2024-04-04T14:31:43.818Z,65.54
2024-04-04T14:34:10.814Z,65.60
2024-04-04T14:36:38.932Z,65.52
2024-04-04T14:39:07.298Z,64.65
2024-04-04T14:41:34.091Z,64.62
2024-04-04T14:44:02.238Z,63.74
2024-04-04T14:46:29.033Z,63.92
2024-04-04T14:48:58.524Z,64.08
2024-04-04T14:51:25.491Z,63.99
2024-04-04T14:53:53.733Z,64.71
2024-04-04T14:56:21.102Z,64.70
2024-04-04T14:58:51.027Z,64.51
2024-04-04T15:01:18.530Z,64.15
2024-04-04T15:03:49.132Z,64.08
2024-04-04T15:06:16.403Z,63.09
2024-04-04T15:08:47.959Z,62.96
2024-04-04T15:11:15.260Z,63.08
2024-04-04T15:13:42.707Z,62.30
2024-04-04T15:16:10.344Z,60.73
2024-04-04T15:18:37.755Z,60.31
2024-04-04T15:21:04.921Z,60.82
2024-04-04T15:23:31.792Z,61.31
2024-04-04T15:25:59.217Z,61.54
2024-04-04T15:28:25.993Z,60.76
2024-04-04T15:30:54.650Z,60.68
2024-04-04T15:33:21.481Z,60.79
2024-04-04T15:35:48.708Z,61.04
2024-04-04T15:38:16.377Z,61.44
2024-04-04T15:40:43.711Z,61.14
2024-04-04T15:43:11.793Z,61.23
2024-04-04T15:45:38.573Z,60.89
2024-04-04T15:48:06.364Z,60.51
2024-04-04T15:50:33.388Z,59.41
2024-04-04T15:53:01.868Z,59.49
2024-04-04T15:55:29.132Z,59.18
2024-04-04T15:57:55.963Z,59.26
2024-04-04T16:00:24.740Z,59.28
2024-04-04T16:02:53.361Z,60.13
2024-04-04T16:05:20.144Z,59.12
2024-04-04T16:07:46.932Z,59.29
2024-04-04T16:10:13.863Z,59.12
2024-04-04T16:15:58.903Z,58.52
2024-04-04T16:18:26.680Z,58.39
2024-04-04T16:20:53.362Z,58.76
2024-04-04T16:23:22.083Z,58.65
2024-04-04T16:25:48.937Z,58.58
2024-04-04T16:28:15.935Z,58.77
2024-04-04T16:30:43.677Z,58.65
2024-04-04T16:33:10.392Z,58.80
2024-04-04T16:35:37.183Z,58.41
2024-04-04T16:38:05.771Z,58.28
2024-04-04T16:40:32.939Z,58.39
2024-04-04T16:42:59.723Z,58.40
2024-04-04T16:45:26.757Z,58.87
2024-04-04T16:47:53.596Z,59.14
2024-04-04T16:50:20.485Z,59.20
2024-04-04T16:52:47.327Z,59.38
2024-04-04T16:55:17.150Z,59.53
2024-04-04T16:57:44.706Z,59.89
2024-04-04T17:00:11.801Z,59.96
2024-04-04T17:02:38.561Z,60.31
2024-04-04T17:05:05.619Z,60.58
2024-04-04T17:07:33.040Z,60.96
2024-04-04T17:09:59.802Z,61.36
2024-04-04T17:12:29.534Z,61.87
2024-04-04T17:14:56.421Z,62.00
2024-04-04T17:17:23.501Z,62.37
2024-04-04T17:19:57.773Z,62.44
2024-04-04T17:22:25.059Z,62.69
2024-04-04T17:24:51.768Z,63.11
2024-04-04T17:27:18.784Z,63.19
2024-04-04T17:29:46.071Z,63.60
2024-04-04T17:32:15.820Z,64.10
2024-04-04T17:34:42.917Z,63.95
2024-04-04T17:37:09.614Z,64.18
2024-04-04T17:39:39.520Z,64.48
2024-04-04T17:42:06.883Z,64.76
2024-04-04T17:44:33.863Z,64.97
2024-04-04T17:47:00.590Z,65.09
2024-04-04T17:49:29.459Z,65.38
2024-04-04T17:52:01.247Z,65.41
2024-04-04T17:54:41.533Z,65.45
2024-04-04T17:57:13.240Z,65.80
2024-04-04T17:59:40.700Z,65.82
2024-04-04T18:02:07.365Z,65.88
2024-04-04T18:04:34.277Z,65.92
2024-04-04T18:07:05.807Z,66.00
2024-04-04T18:09:35.554Z,66.09
2024-04-04T18:12:04.289Z,66.17
2024-04-04T18:14:31.350Z,66.20
2024-04-04T18:16:58.429Z,66.27
2024-04-04T18:19:25.319Z,66.24
2024-04-04T18:21:52.227Z,66.47
2024-04-04T18:24:18.906Z,66.47
2024-04-04T18:26:45.995Z,66.55
2024-04-04T18:29:12.794Z,66.48
2024-04-04T18:31:40.180Z,66.52
2024-04-04T18:34:07.036Z,66.65
2024-04-04T18:36:34.514Z,66.68
2024-04-04T18:39:01.464Z,66.70
2024-04-04T18:41:28.707Z,66.71
2024-04-04T18:43:55.367Z,66.77
2024-04-04T18:46:22.086Z,66.87
2024-04-04T18:48:48.902Z,66.78
2024-04-04T18:51:15.837Z,66.88
2024-04-04T18:53:42.435Z,67.08
2024-04-04T18:56:09.028Z,66.95
2024-04-04T18:58:36.788Z,66.93
2024-04-04T19:01:03.909Z,66.97
2024-04-04T19:03:33.805Z,66.99
2024-04-04T19:06:09.490Z,67.14
2024-04-04T19:08:37.890Z,66.99
2024-04-04T19:11:04.756Z,67.09
2024-04-04T19:13:31.459Z,67.11
2024-04-04T19:16:00.132Z,67.17
2024-04-04T19:18:28.606Z,67.37
2024-04-04T19:20:59.654Z,67.31
2024-04-04T19:23:28.863Z,67.52
2024-04-04T19:25:58.242Z,67.47
2024-04-04T19:28:26.123Z,67.43
2024-04-04T19:30:59.091Z,67.48
2024-04-04T19:33:26.354Z,67.64
2024-04-04T19:35:56.855Z,67.70
2024-04-04T19:38:25.313Z,67.82
2024-04-04T19:40:52.670Z,67.94
2024-04-04T19:43:21.210Z,68.13
2024-04-04T19:45:59.883Z,68.30
2024-04-04T19:48:28.423Z,68.29
2024-04-04T19:51:00.584Z,68.41
2024-04-04T19:53:28.712Z,68.34
2024-04-04T19:55:55.609Z,68.47
2024-04-04T19:58:22.364Z,68.64
2024-04-04T20:00:57.281Z,68.70
2024-04-04T20:03:24.773Z,68.59
2024-04-04T20:05:54.659Z,68.65
2024-04-04T20:08:22.564Z,68.78
2024-04-04T20:10:49.253Z,68.81
2024-04-04T20:13:16.014Z,68.79
2024-04-04T20:15:43.987Z,68.72
2024-04-04T20:18:13.352Z,68.91
2024-04-04T20:20:42.261Z,68.90
2024-04-04T20:23:09.052Z,68.99
2024-04-04T20:25:36.893Z,69.05
2024-04-04T20:28:05.618Z,69.23
2024-04-04T20:30:33.556Z,69.32
2024-04-04T20:33:06.232Z,69.96
2024-04-04T20:35:38.970Z,70.55
2024-04-04T20:38:05.942Z,70.97
2024-04-04T20:40:32.934Z,71.50
2024-04-04T20:42:59.695Z,71.77
2024-04-04T20:45:26.390Z,72.08
2024-04-04T20:47:53.031Z,72.55
2024-04-04T20:50:19.727Z,73.28
2024-04-04T20:52:46.342Z,73.72
2024-04-04T20:55:13.093Z,74.19
2024-04-04T20:57:39.790Z,74.70
2024-04-04T21:00:07.201Z,75.14
2024-04-04T21:02:33.932Z,75.30
2024-04-04T21:05:00.779Z,76.09
2024-04-04T21:07:27.654Z,76.65
2024-04-04T21:09:54.921Z,77.27
2024-04-04T21:12:21.636Z,77.46
2024-04-04T21:14:48.856Z,77.63
2024-04-04T21:17:15.806Z,78.30
2024-04-04T21:19:51.817Z,78.56
2024-04-04T21:22:23.015Z,79.01
2024-04-04T21:24:50.078Z,79.33
2024-04-04T21:27:16.763Z,79.57
2024-04-04T21:29:43.477Z,79.88
2024-04-04T21:32:10.258Z,80.07
2024-04-04T21:34:36.914Z,80.49
2024-04-04T21:37:03.649Z,80.92
2024-04-04T21:39:31.475Z,81.36
2024-04-04T21:41:58.339Z,81.59
2024-04-04T21:44:25.014Z,81.91
2024-04-04T21:46:51.660Z,82.22
2024-04-04T21:49:19.497Z,82.40
2024-04-04T21:51:46.131Z,82.75
2024-04-04T21:54:12.827Z,83.20
2024-04-04T21:56:39.543Z,83.41
2024-04-04T21:59:08.378Z,83.84
2024-04-04T22:01:34.987Z,84.19
2024-04-04T22:04:01.787Z,84.53
2024-04-04T22:06:28.468Z,84.69
2024-04-04T22:08:55.075Z,85.13
2024-04-04T22:11:21.822Z,85.44
2024-04-04T22:13:48.485Z,85.92
2024-04-04T22:16:15.327Z,86.15
2024-04-04T22:18:42.190Z,86.51
2024-04-04T22:21:08.881Z,86.66
2024-04-04T22:23:35.592Z,86.89
2024-04-04T22:26:06.757Z,87.16
2024-04-04T22:28:33.670Z,87.20
2024-04-04T22:31:02.233Z,87.46
2024-04-04T22:33:29.905Z,87.65
2024-04-04T22:35:56.835Z,87.71
2024-04-04T22:38:24.241Z,87.89
2024-04-04T22:40:51.798Z,87.91
2024-04-04T22:43:22.300Z,88.28
2024-04-04T22:45:54.076Z,88.77
2024-04-04T22:48:21.807Z,88.77
2024-04-04T22:50:48.712Z,88.94
2024-04-04T22:53:15.509Z,89.19
2024-04-04T22:55:42.187Z,89.64
2024-04-04T22:58:08.808Z,89.76
2024-04-04T23:00:35.565Z,89.82
2024-04-04T23:03:02.283Z,89.66
2024-04-04T23:05:28.986Z,89.59
2024-04-04T23:07:55.899Z,89.48
2024-04-04T23:10:22.537Z,89.50
2024-04-04T23:12:50.053Z,89.45
2024-04-04T23:15:17.769Z,89.57
2024-04-04T23:17:44.569Z,89.55
2024-04-04T23:20:11.327Z,89.55
2024-04-04T23:22:38.484Z,89.64
2024-04-04T23:25:06.054Z,89.71
2024-04-04T23:27:33.458Z,89.68
2024-04-04T23:30:00.459Z,89.68
2024-04-04T23:32:27.485Z,89.56
2024-04-04T23:34:54.147Z,89.69
2024-04-04T23:37:20.848Z,89.95
2024-04-04T23:39:47.488Z,89.75
2024-04-04T23:42:14.531Z,89.91
2024-04-04T23:44:41.220Z,90.05
2024-04-04T23:47:08.331Z,90.19
2024-04-04T23:49:34.956Z,90.22
2024-04-04T23:52:01.875Z,90.24
2024-04-04T23:54:28.754Z,90.24
2024-04-04T23:56:55.787Z,90.32
2024-04-04T23:59:22.400Z,90.30
